N750XC LSGG-LFRD
Flight info
| Callsign | N750XC |
|---|---|
| Flight time | 1h 1m |
| Altitude | 40000 |
| Route | OBURO DCT TABOV UN491 EKRAS |
| Aircraft | C750/M-SBDE3FGHRWXY/S |
Departure
| Time | 2026-05-06 14:34 |
|---|---|
| Airport | Geneva International Airport (LSGG) |
Arrival
| Time | 2026-05-06 15:35 |
|---|---|
| Airport | Dinard Pleurtuit Saint-Malo airport (LFRD) |
| Time | Latitude | Longitude | Altitude | Speed | Heading |
|---|---|---|---|---|---|
| 2026-05-06 14:23 | 46.22596 | 6.09622 | 1387 ft | 0 kts | 45° |
| 2026-05-06 14:31 | 46.22601 | 6.09625 | 1388 ft | 4 kts | 28° |
| 2026-05-06 14:32 | 46.22617 | 6.09578 | 1389 ft | 7 kts | 269° |
| 2026-05-06 14:32 | 46.22596 | 6.09494 | 1390 ft | 9 kts | 238° |
| 2026-05-06 14:32 | 46.22576 | 6.09430 | 1400 ft | 6 kts | 247° |
| 2026-05-06 14:32 | 46.22559 | 6.09368 | 1398 ft | 7 kts | 253° |
| 2026-05-06 14:33 | 46.22547 | 6.09282 | 1405 ft | 10 kts | 266° |
| 2026-05-06 14:33 | 46.22558 | 6.09168 | 1412 ft | 10 kts | 302° |
| 2026-05-06 14:33 | 46.22673 | 6.09232 | 1413 ft | 43 kts | 45° |
| 2026-05-06 14:33 | 46.22948 | 6.09636 | 1414 ft | 123 kts | 45° |
| 2026-05-06 14:34 | 46.23692 | 6.10732 | 1698 ft | 163 kts | 48° |
| 2026-05-06 14:34 | 46.24490 | 6.11938 | 2475 ft | 171 kts | 47° |
| 2026-05-06 14:34 | 46.25365 | 6.13271 | 3149 ft | 196 kts | 46° |
| 2026-05-06 14:34 | 46.26347 | 6.14761 | 3739 ft | 220 kts | 46° |
| 2026-05-06 14:35 | 46.27496 | 6.16422 | 4323 ft | 246 kts | 44° |
| 2026-05-06 14:35 | 46.28789 | 6.18231 | 4881 ft | 272 kts | 44° |
| 2026-05-06 14:35 | 46.30152 | 6.20202 | 5798 ft | 277 kts | 45° |
| 2026-05-06 14:35 | 46.31506 | 6.22220 | 6862 ft | 282 kts | 45° |
| 2026-05-06 14:36 | 46.32895 | 6.24276 | 7879 ft | 288 kts | 45° |
| 2026-05-06 14:36 | 46.34315 | 6.26363 | 9005 ft | 293 kts | 45° |
| 2026-05-06 14:36 | 46.35837 | 6.28379 | 9828 ft | 303 kts | 31° |
| 2026-05-06 14:36 | 46.37853 | 6.29286 | 10314 ft | 316 kts | 1° |
| 2026-05-06 14:37 | 46.40097 | 6.28790 | 10437 ft | 339 kts | 341° |
| 2026-05-06 14:37 | 46.42398 | 6.27749 | 10941 ft | 349 kts | 338° |
| 2026-05-06 14:37 | 46.44721 | 6.26697 | 11778 ft | 352 kts | 341° |
| 2026-05-06 14:37 | 46.47127 | 6.25854 | 12519 ft | 358 kts | 344° |
| 2026-05-06 14:38 | 46.49568 | 6.25061 | 13267 ft | 361 kts | 343° |
| 2026-05-06 14:38 | 46.51987 | 6.24161 | 13966 ft | 365 kts | 341° |
| 2026-05-06 14:38 | 46.54490 | 6.23184 | 14607 ft | 370 kts | 342° |
| 2026-05-06 14:38 | 46.56974 | 6.22269 | 15242 ft | 375 kts | 343° |
| 2026-05-06 14:39 | 46.59510 | 6.21322 | 15861 ft | 378 kts | 340° |
| 2026-05-06 14:39 | 46.61831 | 6.19551 | 16421 ft | 377 kts | 321° |
| 2026-05-06 14:39 | 46.63720 | 6.16931 | 17107 ft | 376 kts | 308° |
| 2026-05-06 14:39 | 46.65441 | 6.14050 | 17800 ft | 380 kts | 307° |
| 2026-05-06 14:40 | 46.67189 | 6.11114 | 18445 ft | 386 kts | 308° |
| 2026-05-06 14:40 | 46.68978 | 6.08152 | 19076 ft | 391 kts | 309° |
| 2026-05-06 14:40 | 46.70744 | 6.05235 | 19892 ft | 389 kts | 310° |
| 2026-05-06 14:40 | 46.72452 | 6.02140 | 20427 ft | 394 kts | 301° |
| 2026-05-06 14:41 | 46.73594 | 5.98515 | 21076 ft | 395 kts | 290° |
| 2026-05-06 14:41 | 46.74545 | 5.94734 | 21712 ft | 400 kts | 289° |
| 2026-05-06 14:41 | 46.75498 | 5.90903 | 22340 ft | 404 kts | 289° |
| 2026-05-06 14:41 | 46.76482 | 5.87021 | 22903 ft | 410 kts | 290° |
| 2026-05-06 14:42 | 46.77480 | 5.83104 | 23496 ft | 414 kts | 289° |
| 2026-05-06 14:42 | 46.78477 | 5.79146 | 24013 ft | 418 kts | 289° |
| 2026-05-06 14:42 | 46.79481 | 5.75129 | 24536 ft | 422 kts | 289° |
| 2026-05-06 14:42 | 46.80494 | 5.71095 | 25074 ft | 425 kts | 289° |
| 2026-05-06 14:43 | 46.81512 | 5.67041 | 25636 ft | 427 kts | 288° |
| 2026-05-06 14:43 | 46.82537 | 5.62939 | 26173 ft | 431 kts | 288° |
| 2026-05-06 14:43 | 46.83569 | 5.58802 | 26686 ft | 434 kts | 288° |
| 2026-05-06 14:43 | 46.84606 | 5.54640 | 27206 ft | 438 kts | 288° |
| 2026-05-06 14:44 | 46.85652 | 5.50437 | 27745 ft | 442 kts | 288° |
| 2026-05-06 14:44 | 46.86707 | 5.46190 | 28277 ft | 446 kts | 288° |
| 2026-05-06 14:44 | 46.87767 | 5.41907 | 28813 ft | 450 kts | 288° |
| 2026-05-06 14:45 | 46.89954 | 5.33309 | 29821 ft | 458 kts | 289° |
| 2026-05-06 14:45 | 46.91134 | 5.28971 | 30122 ft | 465 kts | 295° |
| 2026-05-06 14:45 | 46.92801 | 5.24852 | 30326 ft | 473 kts | 305° |
| 2026-05-06 14:45 | 46.94887 | 5.21150 | 30919 ft | 472 kts | 313° |
| 2026-05-06 14:46 | 46.97303 | 5.17877 | 31427 ft | 473 kts | 317° |
| 2026-05-06 14:46 | 46.99744 | 5.14661 | 32108 ft | 470 kts | 316° |
| 2026-05-06 14:46 | 47.02165 | 5.11440 | 32762 ft | 469 kts | 316° |
| 2026-05-06 14:46 | 47.04579 | 5.08227 | 33339 ft | 469 kts | 316° |
| 2026-05-06 14:47 | 47.06996 | 5.05024 | 33927 ft | 469 kts | 315° |
| 2026-05-06 14:47 | 47.09420 | 5.01804 | 34397 ft | 470 kts | 315° |
| 2026-05-06 14:47 | 47.11842 | 4.98575 | 34861 ft | 470 kts | 315° |
| 2026-05-06 14:47 | 47.14261 | 4.95346 | 35383 ft | 470 kts | 315° |
| 2026-05-06 14:48 | 47.16676 | 4.92122 | 35936 ft | 469 kts | 315° |
| 2026-05-06 14:48 | 47.19090 | 4.88896 | 36479 ft | 468 kts | 315° |
| 2026-05-06 14:48 | 47.21468 | 4.85711 | 36994 ft | 468 kts | 315° |
| 2026-05-06 14:48 | 47.23876 | 4.82482 | 37521 ft | 468 kts | 315° |
| 2026-05-06 14:49 | 47.26285 | 4.79250 | 38055 ft | 468 kts | 315° |
| 2026-05-06 14:49 | 47.28688 | 4.76019 | 38591 ft | 468 kts | 315° |
| 2026-05-06 14:49 | 47.31096 | 4.72780 | 39083 ft | 468 kts | 315° |
| 2026-05-06 14:49 | 47.33496 | 4.69547 | 39596 ft | 466 kts | 315° |
| 2026-05-06 14:50 | 47.35894 | 4.66310 | 39882 ft | 472 kts | 315° |
| 2026-05-06 14:50 | 47.38352 | 4.62983 | 39882 ft | 485 kts | 315° |
| 2026-05-06 14:50 | 47.40868 | 4.59579 | 39885 ft | 496 kts | 315° |
| 2026-05-06 14:51 | 47.46043 | 4.52571 | 39897 ft | 513 kts | 315° |
| 2026-05-06 14:51 | 47.51360 | 4.45340 | 39906 ft | 523 kts | 315° |
| 2026-05-06 14:52 | 47.56713 | 4.38047 | 39899 ft | 523 kts | 315° |
| 2026-05-06 14:52 | 47.62039 | 4.30762 | 39900 ft | 524 kts | 315° |
| 2026-05-06 14:53 | 47.66798 | 4.22671 | 39881 ft | 518 kts | 301° |
| 2026-05-06 14:53 | 47.70336 | 4.13344 | 39889 ft | 517 kts | 296° |
| 2026-05-06 14:54 | 47.74036 | 4.04168 | 39895 ft | 518 kts | 300° |
| 2026-05-06 14:54 | 47.77662 | 3.94920 | 39902 ft | 517 kts | 297° |
| 2026-05-06 14:55 | 47.81270 | 3.85725 | 39903 ft | 518 kts | 299° |
| 2026-05-06 14:55 | 47.84906 | 3.76483 | 39910 ft | 517 kts | 297° |
| 2026-05-06 14:56 | 47.88514 | 3.67191 | 39898 ft | 517 kts | 298° |
| 2026-05-06 14:56 | 47.92140 | 3.57913 | 39910 ft | 517 kts | 298° |
| 2026-05-06 14:57 | 47.95737 | 3.48597 | 39910 ft | 517 kts | 298° |
| 2026-05-06 14:57 | 47.99336 | 3.39305 | 39932 ft | 517 kts | 298° |
| 2026-05-06 14:58 | 48.02889 | 3.30056 | 39912 ft | 516 kts | 298° |
| 2026-05-06 14:58 | 48.06466 | 3.20741 | 39911 ft | 516 kts | 298° |
| 2026-05-06 14:59 | 48.10030 | 3.11412 | 39920 ft | 516 kts | 298° |
| 2026-05-06 14:59 | 48.13587 | 3.02077 | 39905 ft | 516 kts | 298° |
| 2026-05-06 15:00 | 48.17141 | 2.92712 | 39918 ft | 518 kts | 298° |
| 2026-05-06 15:00 | 48.20695 | 2.83317 | 39922 ft | 518 kts | 297° |
| 2026-05-06 15:01 | 48.24242 | 2.73904 | 39924 ft | 518 kts | 297° |
| 2026-05-06 15:01 | 48.27782 | 2.64477 | 39917 ft | 518 kts | 297° |
| 2026-05-06 15:02 | 48.31289 | 2.55108 | 39915 ft | 517 kts | 297° |
| 2026-05-06 15:02 | 48.34809 | 2.45666 | 39918 ft | 515 kts | 297° |
| 2026-05-06 15:03 | 48.38300 | 2.36270 | 39915 ft | 515 kts | 297° |
| 2026-05-06 15:03 | 48.41759 | 2.26928 | 39920 ft | 514 kts | 297° |
| 2026-05-06 15:04 | 48.45236 | 2.17503 | 39907 ft | 514 kts | 297° |
| 2026-05-06 15:04 | 48.48705 | 2.08065 | 39910 ft | 515 kts | 297° |
| 2026-05-06 15:05 | 48.52170 | 1.98607 | 39917 ft | 515 kts | 297° |
| 2026-05-06 15:05 | 48.55622 | 1.89147 | 39917 ft | 515 kts | 297° |
| 2026-05-06 15:06 | 48.59069 | 1.79669 | 39916 ft | 515 kts | 297° |
| 2026-05-06 15:06 | 48.62509 | 1.70174 | 39916 ft | 515 kts | 297° |
| 2026-05-06 15:07 | 48.65156 | 1.60206 | 39901 ft | 510 kts | 282° |
| 2026-05-06 15:07 | 48.66426 | 1.49660 | 39925 ft | 509 kts | 278° |
| 2026-05-06 15:08 | 48.67905 | 1.39165 | 39927 ft | 512 kts | 282° |
| 2026-05-06 15:08 | 48.69280 | 1.28603 | 39935 ft | 511 kts | 279° |
| 2026-05-06 15:09 | 48.70677 | 1.18064 | 39940 ft | 511 kts | 281° |
| 2026-05-06 15:09 | 48.72068 | 1.07504 | 39941 ft | 511 kts | 280° |
| 2026-05-06 15:10 | 48.73421 | 0.97016 | 39945 ft | 510 kts | 280° |
| 2026-05-06 15:10 | 48.74782 | 0.86584 | 39236 ft | 491 kts | 280° |
| 2026-05-06 15:10 | 48.75417 | 0.81584 | 38591 ft | 476 kts | 280° |
| 2026-05-06 15:11 | 48.76041 | 0.76735 | 37920 ft | 460 kts | 280° |
| 2026-05-06 15:11 | 48.76648 | 0.72049 | 37325 ft | 446 kts | 280° |
| 2026-05-06 15:11 | 48.77231 | 0.67485 | 36750 ft | 438 kts | 280° |
| 2026-05-06 15:11 | 48.77803 | 0.62959 | 36180 ft | 438 kts | 281° |
| 2026-05-06 15:12 | 48.78384 | 0.58377 | 35605 ft | 447 kts | 281° |
| 2026-05-06 15:12 | 48.78971 | 0.53716 | 35008 ft | 451 kts | 281° |
| 2026-05-06 15:12 | 48.79359 | 0.49000 | 34419 ft | 452 kts | 276° |
| 2026-05-06 15:12 | 48.79630 | 0.44294 | 33813 ft | 452 kts | 275° |
| 2026-05-06 15:13 | 48.79901 | 0.39487 | 33183 ft | 451 kts | 276° |
| 2026-05-06 15:13 | 48.80208 | 0.34804 | 32589 ft | 452 kts | 276° |
| 2026-05-06 15:13 | 48.80528 | 0.30039 | 32000 ft | 455 kts | 277° |
| 2026-05-06 15:13 | 48.80820 | 0.25253 | 31400 ft | 456 kts | 276° |
| 2026-05-06 15:14 | 48.81100 | 0.20464 | 30797 ft | 456 kts | 276° |
| 2026-05-06 15:14 | 48.81396 | 0.15650 | 30201 ft | 458 kts | 276° |
| 2026-05-06 15:14 | 48.81695 | 0.10873 | 29560 ft | 452 kts | 276° |
| 2026-05-06 15:14 | 48.81980 | 0.06148 | 28966 ft | 447 kts | 276° |
| 2026-05-06 15:15 | 48.82162 | 0.03055 | 28581 ft | 444 kts | 276° |
| 2026-05-06 15:15 | 48.82436 | -0.01587 | 27997 ft | 437 kts | 276° |
| 2026-05-06 15:15 | 48.82709 | -0.06152 | 27432 ft | 432 kts | 275° |
| 2026-05-06 15:15 | 48.82978 | -0.10681 | 26864 ft | 429 kts | 275° |
| 2026-05-06 15:16 | 48.83239 | -0.15177 | 26297 ft | 426 kts | 275° |
| 2026-05-06 15:16 | 48.83496 | -0.19632 | 25739 ft | 421 kts | 275° |
| 2026-05-06 15:16 | 48.83751 | -0.24046 | 25185 ft | 418 kts | 275° |
| 2026-05-06 15:16 | 48.84000 | -0.28426 | 24637 ft | 414 kts | 275° |
| 2026-05-06 15:17 | 48.84231 | -0.32769 | 24093 ft | 411 kts | 275° |
| 2026-05-06 15:17 | 48.84457 | -0.37081 | 23558 ft | 408 kts | 275° |
| 2026-05-06 15:17 | 48.84686 | -0.41358 | 22982 ft | 403 kts | 275° |
| 2026-05-06 15:17 | 48.84913 | -0.45596 | 22451 ft | 401 kts | 275° |
| 2026-05-06 15:18 | 48.85131 | -0.49737 | 21932 ft | 398 kts | 275° |
| 2026-05-06 15:18 | 48.85348 | -0.53926 | 21408 ft | 396 kts | 275° |
| 2026-05-06 15:18 | 48.85564 | -0.58080 | 20886 ft | 394 kts | 275° |
| 2026-05-06 15:18 | 48.85777 | -0.62209 | 20370 ft | 391 kts | 275° |
| 2026-05-06 15:19 | 48.85987 | -0.66312 | 19856 ft | 388 kts | 275° |
| 2026-05-06 15:19 | 48.86194 | -0.70388 | 19344 ft | 386 kts | 275° |
| 2026-05-06 15:19 | 48.86398 | -0.74442 | 18836 ft | 383 kts | 275° |
| 2026-05-06 15:19 | 48.86601 | -0.78469 | 18334 ft | 382 kts | 275° |
| 2026-05-06 15:20 | 48.86800 | -0.82475 | 17796 ft | 379 kts | 275° |
| 2026-05-06 15:20 | 48.86997 | -0.86458 | 17296 ft | 376 kts | 275° |
| 2026-05-06 15:20 | 48.87190 | -0.90397 | 16795 ft | 372 kts | 275° |
| 2026-05-06 15:20 | 48.87380 | -0.94303 | 16310 ft | 369 kts | 275° |
| 2026-05-06 15:21 | 48.87568 | -0.98178 | 15825 ft | 367 kts | 275° |
| 2026-05-06 15:21 | 48.87753 | -1.02035 | 15342 ft | 364 kts | 275° |
| 2026-05-06 15:21 | 48.87935 | -1.05853 | 14867 ft | 361 kts | 275° |
| 2026-05-06 15:21 | 48.88115 | -1.09653 | 14391 ft | 359 kts | 275° |
| 2026-05-06 15:22 | 48.88290 | -1.13374 | 13924 ft | 356 kts | 275° |
| 2026-05-06 15:22 | 48.88465 | -1.17115 | 13430 ft | 354 kts | 275° |
| 2026-05-06 15:22 | 48.88637 | -1.20832 | 12961 ft | 350 kts | 275° |
| 2026-05-06 15:22 | 48.88807 | -1.24515 | 12500 ft | 348 kts | 275° |
| 2026-05-06 15:23 | 48.88974 | -1.28175 | 12041 ft | 345 kts | 275° |
| 2026-05-06 15:23 | 48.89139 | -1.31801 | 11581 ft | 343 kts | 275° |
| 2026-05-06 15:23 | 48.89302 | -1.35409 | 11136 ft | 338 kts | 274° |
| 2026-05-06 15:23 | 48.89456 | -1.38851 | 10701 ft | 314 kts | 274° |
| 2026-05-06 15:24 | 48.89598 | -1.42061 | 10297 ft | 295 kts | 274° |
| 2026-05-06 15:24 | 48.89731 | -1.45078 | 9922 ft | 280 kts | 274° |
| 2026-05-06 15:24 | 48.89860 | -1.47989 | 9550 ft | 273 kts | 274° |
| 2026-05-06 15:24 | 48.89825 | -1.50850 | 9152 ft | 272 kts | 261° |
| 2026-05-06 15:25 | 48.89389 | -1.53653 | 8849 ft | 273 kts | 257° |
| 2026-05-06 15:25 | 48.88945 | -1.56420 | 8498 ft | 274 kts | 258° |
| 2026-05-06 15:25 | 48.88519 | -1.59251 | 8134 ft | 275 kts | 258° |
| 2026-05-06 15:25 | 48.88096 | -1.62070 | 7770 ft | 273 kts | 258° |
| 2026-05-06 15:26 | 48.87668 | -1.64865 | 7413 ft | 271 kts | 258° |
| 2026-05-06 15:26 | 48.87240 | -1.67645 | 7054 ft | 269 kts | 258° |
| 2026-05-06 15:26 | 48.86815 | -1.70415 | 6696 ft | 268 kts | 258° |
| 2026-05-06 15:26 | 48.86392 | -1.73173 | 6344 ft | 268 kts | 258° |
| 2026-05-06 15:27 | 48.85968 | -1.75925 | 5972 ft | 267 kts | 257° |
| 2026-05-06 15:27 | 48.85546 | -1.78664 | 5624 ft | 266 kts | 257° |
| 2026-05-06 15:27 | 48.85124 | -1.81392 | 5272 ft | 265 kts | 257° |
| 2026-05-06 15:27 | 48.84708 | -1.84081 | 4927 ft | 265 kts | 257° |
| 2026-05-06 15:28 | 48.84286 | -1.86798 | 4575 ft | 264 kts | 257° |
| 2026-05-06 15:28 | 48.83866 | -1.89508 | 4218 ft | 263 kts | 257° |
| 2026-05-06 15:28 | 48.83446 | -1.92209 | 3870 ft | 262 kts | 257° |
| 2026-05-06 15:28 | 48.83027 | -1.94892 | 3526 ft | 257 kts | 257° |
| 2026-05-06 15:29 | 48.82625 | -1.97466 | 3182 ft | 245 kts | 257° |
| 2026-05-06 15:29 | 48.82293 | -1.99952 | 2977 ft | 233 kts | 263° |
| 2026-05-06 15:29 | 48.82039 | -2.02358 | 2990 ft | 232 kts | 260° |
| 2026-05-06 15:29 | 48.81718 | -2.04779 | 2993 ft | 236 kts | 260° |
| 2026-05-06 15:30 | 48.81423 | -2.07240 | 3002 ft | 238 kts | 261° |
| 2026-05-06 15:30 | 48.81121 | -2.09714 | 2998 ft | 239 kts | 257° |
| 2026-05-06 15:30 | 48.80252 | -2.11842 | 2945 ft | 241 kts | 223° |
| 2026-05-06 15:30 | 48.78773 | -2.12977 | 2959 ft | 238 kts | 191° |
| 2026-05-06 15:31 | 48.77201 | -2.12892 | 2999 ft | 219 kts | 171° |
| 2026-05-06 15:31 | 48.75752 | -2.12495 | 3002 ft | 206 kts | 169° |
| 2026-05-06 15:31 | 48.74381 | -2.12125 | 2997 ft | 190 kts | 170° |
| 2026-05-06 15:32 | 48.71884 | -2.11464 | 2976 ft | 171 kts | 170° |
| 2026-05-06 15:32 | 48.70718 | -2.11155 | 2767 ft | 171 kts | 170° |
| 2026-05-06 15:32 | 48.69546 | -2.10844 | 2500 ft | 171 kts | 169° |
| 2026-05-06 15:32 | 48.68378 | -2.10535 | 2236 ft | 170 kts | 169° |
| 2026-05-06 15:33 | 48.67210 | -2.10226 | 1970 ft | 170 kts | 169° |
| 2026-05-06 15:33 | 48.66045 | -2.09917 | 1702 ft | 169 kts | 169° |
| 2026-05-06 15:33 | 48.64943 | -2.09627 | 1427 ft | 150 kts | 167° |
| 2026-05-06 15:33 | 48.63976 | -2.09373 | 1193 ft | 135 kts | 167° |
| 2026-05-06 15:34 | 48.63061 | -2.09139 | 968 ft | 133 kts | 167° |
| 2026-05-06 15:34 | 48.62141 | -2.08891 | 794 ft | 133 kts | 167° |
| 2026-05-06 15:34 | 48.61231 | -2.08645 | 593 ft | 133 kts | 169° |
| 2026-05-06 15:34 | 48.60318 | -2.08406 | 380 ft | 133 kts | 168° |
| 2026-05-06 15:35 | 48.59414 | -2.08164 | 226 ft | 125 kts | 169° |
| 2026-05-06 15:35 | 48.58788 | -2.07999 | 228 ft | 61 kts | 171° |
| 2026-05-06 15:35 | 48.58503 | -2.07943 | 228 ft | 17 kts | 180° |
| 2026-05-06 15:35 | 48.58494 | -2.07920 | 231 ft | 6 kts | 350° |